sensor_id;sensor_type;location;lat;lon;timestamp;P1;durP1;ratioP1;P2;durP2;ratioP2
611;SDS011;293;53.888;11.464;2023-05-07T00:00:24;12.07;;;10.60;;
611;SDS011;293;53.888;11.464;2023-05-07T00:02:52;15.13;;;12.20;;
611;SDS011;293;53.888;11.464;2023-05-07T00:05:19;12.60;;;11.27;;
611;SDS011;293;53.888;11.464;2023-05-07T00:07:46;13.83;;;12.43;;
611;SDS011;293;53.888;11.464;2023-05-07T00:10:13;12.37;;;10.40;;
611;SDS011;293;53.888;11.464;2023-05-07T00:12:40;13.53;;;12.23;;
611;SDS011;293;53.888;11.464;2023-05-07T00:15:07;13.27;;;10.90;;
611;SDS011;293;53.888;11.464;2023-05-07T00:17:35;11.83;;;10.23;;
611;SDS011;293;53.888;11.464;2023-05-07T00:20:04;12.63;;;11.43;;
611;SDS011;293;53.888;11.464;2023-05-07T00:22:32;12.43;;;11.17;;
611;SDS011;293;53.888;11.464;2023-05-07T00:24:59;12.20;;;11.03;;
611;SDS011;293;53.888;11.464;2023-05-07T00:27:26;12.47;;;11.17;;
611;SDS011;293;53.888;11.464;2023-05-07T00:29:52;13.37;;;11.43;;
611;SDS011;293;53.888;11.464;2023-05-07T00:32:19;14.70;;;12.10;;
611;SDS011;293;53.888;11.464;2023-05-07T00:34:46;13.97;;;12.43;;
611;SDS011;293;53.888;11.464;2023-05-07T00:37:14;14.33;;;11.60;;
611;SDS011;293;53.888;11.464;2023-05-07T00:39:41;12.33;;;10.63;;
611;SDS011;293;53.888;11.464;2023-05-07T00:42:08;13.53;;;11.43;;
611;SDS011;293;53.888;11.464;2023-05-07T00:44:35;13.47;;;12.07;;
611;SDS011;293;53.888;11.464;2023-05-07T00:47:02;14.77;;;11.23;;
611;SDS011;293;53.888;11.464;2023-05-07T00:49:32;12.20;;;11.17;;
611;SDS011;293;53.888;11.464;2023-05-07T00:52:04;12.57;;;10.77;;
611;SDS011;293;53.888;11.464;2023-05-07T00:54:33;13.47;;;12.27;;
611;SDS011;293;53.888;11.464;2023-05-07T00:57:01;13.47;;;12.07;;
611;SDS011;293;53.888;11.464;2023-05-07T00:59:28;13.27;;;11.80;;
611;SDS011;293;53.888;11.464;2023-05-07T01:01:56;11.23;;;10.20;;
611;SDS011;293;53.888;11.464;2023-05-07T01:04:23;12.57;;;10.37;;
611;SDS011;293;53.888;11.464;2023-05-07T01:06:49;13.77;;;11.30;;
611;SDS011;293;53.888;11.464;2023-05-07T01:09:17;14.20;;;12.80;;
611;SDS011;293;53.888;11.464;2023-05-07T01:11:47;13.57;;;10.93;;
611;SDS011;293;53.888;11.464;2023-05-07T01:14:15;13.47;;;11.97;;
611;SDS011;293;53.888;11.464;2023-05-07T01:16:43;12.60;;;11.40;;
611;SDS011;293;53.888;11.464;2023-05-07T01:19:10;12.70;;;11.37;;
611;SDS011;293;53.888;11.464;2023-05-07T01:21:39;11.23;;;10.13;;
611;SDS011;293;53.888;11.464;2023-05-07T01:24:12;13.00;;;11.73;;
611;SDS011;293;53.888;11.464;2023-05-07T01:26:40;11.67;;;10.57;;
611;SDS011;293;53.888;11.464;2023-05-07T01:29:07;12.30;;;10.00;;
611;SDS011;293;53.888;11.464;2023-05-07T01:31:35;10.40;;;9.40;;
611;SDS011;293;53.888;11.464;2023-05-07T01:34:03;11.60;;;9.83;;
611;SDS011;293;53.888;11.464;2023-05-07T01:36:31;9.80;;;8.87;;
611;SDS011;293;53.888;11.464;2023-05-07T01:38:58;11.30;;;10.10;;
611;SDS011;293;53.888;11.464;2023-05-07T01:41:27;11.07;;;10.00;;
611;SDS011;293;53.888;11.464;2023-05-07T01:43:54;9.90;;;8.93;;
611;SDS011;293;53.888;11.464;2023-05-07T01:46:23;9.83;;;8.83;;
611;SDS011;293;53.888;11.464;2023-05-07T01:48:52;11.13;;;10.03;;
611;SDS011;293;53.888;11.464;2023-05-07T01:51:19;11.80;;;8.70;;
611;SDS011;293;53.888;11.464;2023-05-07T01:53:47;12.17;;;10.97;;
611;SDS011;293;53.888;11.464;2023-05-07T01:56:15;10.10;;;9.07;;
611;SDS011;293;53.888;11.464;2023-05-07T01:58:44;9.40;;;8.40;;
611;SDS011;293;53.888;11.464;2023-05-07T02:01:12;9.83;;;8.50;;
611;SDS011;293;53.888;11.464;2023-05-07T02:03:39;10.87;;;9.90;;
611;SDS011;293;53.888;11.464;2023-05-07T02:06:06;9.97;;;8.97;;
611;SDS011;293;53.888;11.464;2023-05-07T02:08:33;9.77;;;8.80;;
611;SDS011;293;53.888;11.464;2023-05-07T02:10:59;10.40;;;8.10;;
611;SDS011;293;53.888;11.464;2023-05-07T02:13:28;10.40;;;9.40;;
611;SDS011;293;53.888;11.464;2023-05-07T02:15:57;14.17;;;9.40;;
611;SDS011;293;53.888;11.464;2023-05-07T02:18:24;11.20;;;10.13;;
611;SDS011;293;53.888;11.464;2023-05-07T02:20:51;14.30;;;8.23;;
611;SDS011;293;53.888;11.464;2023-05-07T02:23:17;11.47;;;10.43;;
611;SDS011;293;53.888;11.464;2023-05-07T02:25:44;11.70;;;9.33;;
611;SDS011;293;53.888;11.464;2023-05-07T02:28:11;8.97;;;8.17;;
611;SDS011;293;53.888;11.464;2023-05-07T02:30:38;10.23;;;9.33;;
611;SDS011;293;53.888;11.464;2023-05-07T02:33:07;11.17;;;10.07;;
611;SDS011;293;53.888;11.464;2023-05-07T02:35:34;9.03;;;8.13;;
611;SDS011;293;53.888;11.464;2023-05-07T02:38:01;10.03;;;9.03;;
611;SDS011;293;53.888;11.464;2023-05-07T02:40:28;9.70;;;8.70;;
611;SDS011;293;53.888;11.464;2023-05-07T02:42:58;10.47;;;9.30;;
611;SDS011;293;53.888;11.464;2023-05-07T02:45:25;11.07;;;9.13;;
611;SDS011;293;53.888;11.464;2023-05-07T02:47:52;15.93;;;9.57;;
611;SDS011;293;53.888;11.464;2023-05-07T02:50:21;9.10;;;8.30;;
611;SDS011;293;53.888;11.464;2023-05-07T02:52:48;10.53;;;9.50;;
611;SDS011;293;53.888;11.464;2023-05-07T02:55:15;11.63;;;10.43;;
611;SDS011;293;53.888;11.464;2023-05-07T02:57:42;9.50;;;8.60;;
611;SDS011;293;53.888;11.464;2023-05-07T03:00:13;13.03;;;9.47;;
611;SDS011;293;53.888;11.464;2023-05-07T03:02:41;11.57;;;10.43;;
611;SDS011;293;53.888;11.464;2023-05-07T03:05:08;9.87;;;8.70;;
611;SDS011;293;53.888;11.464;2023-05-07T03:07:36;11.53;;;8.70;;
611;SDS011;293;53.888;11.464;2023-05-07T03:10:03;9.10;;;8.23;;
611;SDS011;293;53.888;11.464;2023-05-07T03:12:31;11.30;;;10.00;;
611;SDS011;293;53.888;11.464;2023-05-07T03:14:58;12.90;;;10.13;;
611;SDS011;293;53.888;11.464;2023-05-07T03:17:25;10.53;;;9.50;;
611;SDS011;293;53.888;11.464;2023-05-07T03:19:51;9.93;;;9.03;;
611;SDS011;293;53.888;11.464;2023-05-07T03:22:18;11.97;;;10.33;;
611;SDS011;293;53.888;11.464;2023-05-07T03:24:46;10.17;;;9.20;;
611;SDS011;293;53.888;11.464;2023-05-07T03:27:13;13.00;;;10.63;;
611;SDS011;293;53.888;11.464;2023-05-07T03:29:40;10.37;;;9.27;;
611;SDS011;293;53.888;11.464;2023-05-07T03:32:07;11.60;;;9.77;;
611;SDS011;293;53.888;11.464;2023-05-07T03:34:34;10.20;;;9.30;;
611;SDS011;293;53.888;11.464;2023-05-07T03:37:01;12.43;;;11.17;;
611;SDS011;293;53.888;11.464;2023-05-07T03:39:28;11.17;;;10.10;;
611;SDS011;293;53.888;11.464;2023-05-07T03:41:56;11.33;;;10.10;;
611;SDS011;293;53.888;11.464;2023-05-07T03:44:23;10.37;;;9.27;;
611;SDS011;293;53.888;11.464;2023-05-07T03:46:50;11.50;;;10.40;;
611;SDS011;293;53.888;11.464;2023-05-07T03:49:17;10.50;;;9.40;;
611;SDS011;293;53.888;11.464;2023-05-07T03:51:44;11.67;;;9.73;;
611;SDS011;293;53.888;11.464;2023-05-07T03:54:11;11.97;;;10.77;;
611;SDS011;293;53.888;11.464;2023-05-07T03:56:37;11.10;;;10.00;;
611;SDS011;293;53.888;11.464;2023-05-07T03:59:06;11.37;;;9.27;;
611;SDS011;293;53.888;11.464;2023-05-07T04:01:33;12.80;;;10.43;;
611;SDS011;293;53.888;11.464;2023-05-07T04:04:00;10.50;;;8.83;;
611;SDS011;293;53.888;11.464;2023-05-07T04:06:28;12.30;;;10.50;;
611;SDS011;293;53.888;11.464;2023-05-07T04:08:55;12.50;;;9.13;;
611;SDS011;293;53.888;11.464;2023-05-07T04:11:22;13.40;;;11.07;;
611;SDS011;293;53.888;11.464;2023-05-07T04:13:49;13.30;;;12.10;;
611;SDS011;293;53.888;11.464;2023-05-07T04:16:17;12.63;;;11.20;;
611;SDS011;293;53.888;11.464;2023-05-07T04:18:44;10.80;;;9.73;;
611;SDS011;293;53.888;11.464;2023-05-07T04:21:14;10.67;;;8.63;;
611;SDS011;293;53.888;11.464;2023-05-07T04:23:41;11.20;;;8.57;;
611;SDS011;293;53.888;11.464;2023-05-07T04:26:08;11.83;;;9.40;;
611;SDS011;293;53.888;11.464;2023-05-07T04:28:35;11.23;;;9.23;;
611;SDS011;293;53.888;11.464;2023-05-07T04:31:02;11.23;;;10.13;;
611;SDS011;293;53.888;11.464;2023-05-07T04:33:31;9.87;;;8.87;;
611;SDS011;293;53.888;11.464;2023-05-07T04:35:58;9.57;;;8.60;;
611;SDS011;293;53.888;11.464;2023-05-07T04:38:28;10.27;;;9.33;;
611;SDS011;293;53.888;11.464;2023-05-07T04:40:55;10.90;;;9.90;;
611;SDS011;293;53.888;11.464;2023-05-07T04:43:22;10.13;;;9.23;;
611;SDS011;293;53.888;11.464;2023-05-07T04:45:49;10.07;;;9.17;;
611;SDS011;293;53.888;11.464;2023-05-07T04:48:16;10.03;;;8.97;;
611;SDS011;293;53.888;11.464;2023-05-07T04:50:48;10.40;;;9.40;;
611;SDS011;293;53.888;11.464;2023-05-07T04:53:15;11.37;;;10.23;;
611;SDS011;293;53.888;11.464;2023-05-07T04:55:42;10.60;;;9.37;;
611;SDS011;293;53.888;11.464;2023-05-07T04:58:10;9.30;;;8.40;;
611;SDS011;293;53.888;11.464;2023-05-07T05:00:36;9.17;;;8.30;;
611;SDS011;293;53.888;11.464;2023-05-07T05:03:03;9.07;;;8.10;;
611;SDS011;293;53.888;11.464;2023-05-07T05:05:31;8.63;;;7.80;;
611;SDS011;293;53.888;11.464;2023-05-07T05:07:59;14.23;;;10.17;;
611;SDS011;293;53.888;11.464;2023-05-07T05:10:26;9.43;;;8.53;;
611;SDS011;293;53.888;11.464;2023-05-07T05:12:53;9.47;;;8.57;;
611;SDS011;293;53.888;11.464;2023-05-07T05:15:19;8.87;;;8.07;;
611;SDS011;293;53.888;11.464;2023-05-07T05:17:46;10.87;;;9.73;;
611;SDS011;293;53.888;11.464;2023-05-07T05:20:13;11.50;;;10.40;;
611;SDS011;293;53.888;11.464;2023-05-07T05:22:40;10.33;;;9.30;;
611;SDS011;293;53.888;11.464;2023-05-07T05:25:09;9.37;;;8.57;;
611;SDS011;293;53.888;11.464;2023-05-07T05:27:36;9.40;;;8.37;;
611;SDS011;293;53.888;11.464;2023-05-07T05:30:03;9.63;;;8.83;;
611;SDS011;293;53.888;11.464;2023-05-07T05:32:31;9.20;;;7.70;;
611;SDS011;293;53.888;11.464;2023-05-07T05:34:58;9.30;;;8.47;;
611;SDS011;293;53.888;11.464;2023-05-07T05:37:25;11.53;;;7.80;;
611;SDS011;293;53.888;11.464;2023-05-07T05:39:52;9.70;;;7.67;;
611;SDS011;293;53.888;11.464;2023-05-07T05:42:21;18.33;;;14.50;;
611;SDS011;293;53.888;11.464;2023-05-07T05:44:48;16.30;;;14.50;;
611;SDS011;293;53.888;11.464;2023-05-07T05:47:14;7.73;;;7.03;;
611;SDS011;293;53.888;11.464;2023-05-07T05:49:41;9.03;;;8.13;;
611;SDS011;293;53.888;11.464;2023-05-07T05:52:09;9.17;;;8.33;;
611;SDS011;293;53.888;11.464;2023-05-07T05:54:38;7.17;;;6.57;;
611;SDS011;293;53.888;11.464;2023-05-07T05:57:04;8.60;;;7.80;;
611;SDS011;293;53.888;11.464;2023-05-07T05:59:33;7.87;;;7.10;;
611;SDS011;293;53.888;11.464;2023-05-07T06:02:00;7.87;;;7.07;;
611;SDS011;293;53.888;11.464;2023-05-07T06:04:26;8.27;;;7.43;;
611;SDS011;293;53.888;11.464;2023-05-07T06:06:53;7.33;;;6.73;;
611;SDS011;293;53.888;11.464;2023-05-07T06:09:21;7.50;;;6.80;;
611;SDS011;293;53.888;11.464;2023-05-07T06:11:48;7.13;;;6.43;;
611;SDS011;293;53.888;11.464;2023-05-07T06:14:15;6.97;;;6.33;;
611;SDS011;293;53.888;11.464;2023-05-07T06:16:43;6.80;;;5.67;;
611;SDS011;293;53.888;11.464;2023-05-07T06:19:10;6.87;;;6.17;;
611;SDS011;293;53.888;11.464;2023-05-07T06:21:38;6.50;;;6.00;;
611;SDS011;293;53.888;11.464;2023-05-07T06:24:06;7.70;;;7.00;;
611;SDS011;293;53.888;11.464;2023-05-07T06:26:33;6.83;;;6.23;;
611;SDS011;293;53.888;11.464;2023-05-07T06:29:00;7.67;;;6.97;;
611;SDS011;293;53.888;11.464;2023-05-07T06:31:29;7.70;;;7.00;;
611;SDS011;293;53.888;11.464;2023-05-07T06:33:58;7.60;;;6.53;;
611;SDS011;293;53.888;11.464;2023-05-07T06:36:27;8.10;;;7.30;;
611;SDS011;293;53.888;11.464;2023-05-07T06:38:54;9.60;;;6.37;;
611;SDS011;293;53.888;11.464;2023-05-07T06:41:20;7.27;;;6.57;;
611;SDS011;293;53.888;11.464;2023-05-07T06:43:47;9.60;;;7.30;;
611;SDS011;293;53.888;11.464;2023-05-07T06:46:14;11.17;;;10.07;;
611;SDS011;293;53.888;11.464;2023-05-07T06:48:41;8.43;;;7.67;;
611;SDS011;293;53.888;11.464;2023-05-07T06:51:10;8.80;;;6.97;;
611;SDS011;293;53.888;11.464;2023-05-07T06:53:37;8.17;;;7.23;;
611;SDS011;293;53.888;11.464;2023-05-07T06:56:04;7.50;;;6.60;;
611;SDS011;293;53.888;11.464;2023-05-07T06:58:31;8.43;;;6.20;;
611;SDS011;293;53.888;11.464;2023-05-07T07:00:58;6.20;;;5.70;;
611;SDS011;293;53.888;11.464;2023-05-07T07:03:25;8.00;;;7.30;;
611;SDS011;293;53.888;11.464;2023-05-07T07:05:52;7.27;;;6.67;;
611;SDS011;293;53.888;11.464;2023-05-07T07:08:21;6.90;;;6.30;;
611;SDS011;293;53.888;11.464;2023-05-07T07:10:48;6.17;;;5.53;;
611;SDS011;293;53.888;11.464;2023-05-07T07:13:15;7.50;;;6.00;;
611;SDS011;293;53.888;11.464;2023-05-07T07:15:42;6.43;;;5.73;;
611;SDS011;293;53.888;11.464;2023-05-07T07:18:10;7.27;;;6.30;;
611;SDS011;293;53.888;11.464;2023-05-07T07:20:36;6.30;;;5.80;;
611;SDS011;293;53.888;11.464;2023-05-07T07:23:03;6.73;;;6.13;;
611;SDS011;293;53.888;11.464;2023-05-07T07:25:31;5.70;;;5.20;;
611;SDS011;293;53.888;11.464;2023-05-07T07:27:58;5.60;;;5.10;;
611;SDS011;293;53.888;11.464;2023-05-07T07:30:25;6.50;;;5.13;;
611;SDS011;293;53.888;11.464;2023-05-07T07:32:52;5.23;;;4.80;;
611;SDS011;293;53.888;11.464;2023-05-07T07:35:20;4.80;;;4.37;;
611;SDS011;293;53.888;11.464;2023-05-07T07:37:47;5.57;;;5.07;;
611;SDS011;293;53.888;11.464;2023-05-07T07:40:16;5.13;;;4.37;;
611;SDS011;293;53.888;11.464;2023-05-07T07:42:44;10.53;;;4.47;;
611;SDS011;293;53.888;11.464;2023-05-07T07:45:11;4.70;;;4.20;;
611;SDS011;293;53.888;11.464;2023-05-07T07:47:38;4.40;;;3.93;;
611;SDS011;293;53.888;11.464;2023-05-07T07:50:06;4.40;;;4.10;;
611;SDS011;293;53.888;11.464;2023-05-07T07:52:34;4.37;;;3.97;;
611;SDS011;293;53.888;11.464;2023-05-07T07:55:01;4.10;;;3.80;;
611;SDS011;293;53.888;11.464;2023-05-07T07:57:28;4.20;;;3.80;;
611;SDS011;293;53.888;11.464;2023-05-07T07:59:56;4.53;;;4.13;;
611;SDS011;293;53.888;11.464;2023-05-07T08:02:23;8.63;;;4.67;;
611;SDS011;293;53.888;11.464;2023-05-07T08:04:50;8.27;;;6.80;;
611;SDS011;293;53.888;11.464;2023-05-07T08:07:17;6.83;;;6.20;;
611;SDS011;293;53.888;11.464;2023-05-07T08:09:45;3.80;;;3.50;;
611;SDS011;293;53.888;11.464;2023-05-07T08:12:12;8.10;;;5.17;;
611;SDS011;293;53.888;11.464;2023-05-07T08:14:39;5.40;;;3.37;;
611;SDS011;293;53.888;11.464;2023-05-07T08:17:08;4.23;;;3.87;;
611;SDS011;293;53.888;11.464;2023-05-07T08:19:35;4.13;;;3.73;;
611;SDS011;293;53.888;11.464;2023-05-07T08:22:02;3.40;;;2.97;;
611;SDS011;293;53.888;11.464;2023-05-07T08:24:29;3.40;;;3.13;;
611;SDS011;293;53.888;11.464;2023-05-07T08:26:56;4.73;;;4.13;;
611;SDS011;293;53.888;11.464;2023-05-07T08:29:23;6.13;;;4.77;;
611;SDS011;293;53.888;11.464;2023-05-07T08:31:50;3.33;;;3.00;;
611;SDS011;293;53.888;11.464;2023-05-07T08:34:18;3.63;;;3.33;;
611;SDS011;293;53.888;11.464;2023-05-07T08:36:45;3.10;;;2.90;;
611;SDS011;293;53.888;11.464;2023-05-07T08:39:13;3.77;;;3.47;;
611;SDS011;293;53.888;11.464;2023-05-07T08:41:41;4.57;;;3.80;;
611;SDS011;293;53.888;11.464;2023-05-07T08:44:11;34.13;;;27.73;;
611;SDS011;293;53.888;11.464;2023-05-07T08:46:39;5.40;;;3.80;;
611;SDS011;293;53.888;11.464;2023-05-07T08:49:08;3.87;;;2.77;;
611;SDS011;293;53.888;11.464;2023-05-07T08:51:37;3.03;;;2.63;;
611;SDS011;293;53.888;11.464;2023-05-07T08:54:04;8.40;;;3.10;;
611;SDS011;293;53.888;11.464;2023-05-07T08:56:32;3.20;;;3.00;;
611;SDS011;293;53.888;11.464;2023-05-07T08:58:59;3.80;;;3.40;;
611;SDS011;293;53.888;11.464;2023-05-07T09:01:26;3.00;;;2.60;;
611;SDS011;293;53.888;11.464;2023-05-07T09:03:53;3.67;;;3.17;;
611;SDS011;293;53.888;11.464;2023-05-07T09:06:20;11.20;;;3.53;;
611;SDS011;293;53.888;11.464;2023-05-07T09:08:52;3.57;;;3.27;;
611;SDS011;293;53.888;11.464;2023-05-07T09:11:20;3.07;;;2.70;;
611;SDS011;293;53.888;11.464;2023-05-07T09:13:48;3.00;;;2.60;;
611;SDS011;293;53.888;11.464;2023-05-07T09:16:15;2.90;;;2.70;;
611;SDS011;293;53.888;11.464;2023-05-07T09:18:42;2.70;;;2.50;;
611;SDS011;293;53.888;11.464;2023-05-07T09:21:10;2.40;;;2.30;;
611;SDS011;293;53.888;11.464;2023-05-07T09:23:37;2.37;;;2.17;;
611;SDS011;293;53.888;11.464;2023-05-07T09:26:06;2.30;;;2.10;;
611;SDS011;293;53.888;11.464;2023-05-07T09:28:37;1.90;;;1.80;;
611;SDS011;293;53.888;11.464;2023-05-07T09:31:05;2.47;;;2.20;;
611;SDS011;293;53.888;11.464;2023-05-07T09:33:32;2.60;;;2.40;;
611;SDS011;293;53.888;11.464;2023-05-07T09:36:01;2.80;;;2.20;;
611;SDS011;293;53.888;11.464;2023-05-07T09:38:30;3.33;;;2.97;;
611;SDS011;293;53.888;11.464;2023-05-07T09:41:08;3.53;;;3.23;;
611;SDS011;293;53.888;11.464;2023-05-07T09:43:37;3.67;;;2.17;;
611;SDS011;293;53.888;11.464;2023-05-07T09:46:09;2.30;;;2.10;;
611;SDS011;293;53.888;11.464;2023-05-07T09:48:39;2.10;;;1.87;;
611;SDS011;293;53.888;11.464;2023-05-07T09:51:11;2.80;;;2.03;;
611;SDS011;293;53.888;11.464;2023-05-07T09:53:47;1.90;;;1.80;;
611;SDS011;293;53.888;11.464;2023-05-07T09:56:15;2.50;;;2.10;;
611;SDS011;293;53.888;11.464;2023-05-07T09:58:43;2.40;;;2.20;;
611;SDS011;293;53.888;11.464;2023-05-07T10:01:11;2.73;;;2.53;;
611;SDS011;293;53.888;11.464;2023-05-07T10:03:39;3.00;;;2.43;;
611;SDS011;293;53.888;11.464;2023-05-07T10:06:08;3.03;;;2.07;;
611;SDS011;293;53.888;11.464;2023-05-07T10:08:35;3.60;;;2.23;;
611;SDS011;293;53.888;11.464;2023-05-07T10:11:03;2.93;;;2.33;;
611;SDS011;293;53.888;11.464;2023-05-07T10:13:32;2.80;;;2.60;;
611;SDS011;293;53.888;11.464;2023-05-07T10:16:01;4.10;;;2.53;;
611;SDS011;293;53.888;11.464;2023-05-07T10:20:59;2.57;;;2.37;;
611;SDS011;293;53.888;11.464;2023-05-07T10:23:30;2.30;;;2.00;;
611;SDS011;293;53.888;11.464;2023-05-07T10:25:59;2.27;;;2.07;;
611;SDS011;293;53.888;11.464;2023-05-07T10:28:30;4.10;;;2.50;;
611;SDS011;293;53.888;11.464;2023-05-07T10:31:08;2.63;;;2.43;;
611;SDS011;293;53.888;11.464;2023-05-07T10:33:45;2.40;;;2.30;;
611;SDS011;293;53.888;11.464;2023-05-07T10:36:15;3.27;;;2.40;;
611;SDS011;293;53.888;11.464;2023-05-07T10:38:43;3.70;;;2.30;;
611;SDS011;293;53.888;11.464;2023-05-07T10:41:11;2.20;;;2.00;;
611;SDS011;293;53.888;11.464;2023-05-07T10:43:40;2.43;;;2.23;;
611;SDS011;293;53.888;11.464;2023-05-07T10:46:11;3.13;;;2.57;;
611;SDS011;293;53.888;11.464;2023-05-07T10:51:33;3.83;;;2.53;;
611;SDS011;293;53.888;11.464;2023-05-07T10:54:19;3.23;;;2.40;;
611;SDS011;293;53.888;11.464;2023-05-07T10:56:47;2.07;;;1.97;;
611;SDS011;293;53.888;11.464;2023-05-07T10:59:36;7.90;;;2.13;;
611;SDS011;293;53.888;11.464;2023-05-07T11:02:07;2.37;;;2.17;;
611;SDS011;293;53.888;11.464;2023-05-07T11:04:36;2.43;;;2.23;;
611;SDS011;293;53.888;11.464;2023-05-07T11:10:02;2.90;;;2.70;;
611;SDS011;293;53.888;11.464;2023-05-07T11:15:34;5.17;;;2.30;;
611;SDS011;293;53.888;11.464;2023-05-07T11:18:06;3.30;;;3.10;;
611;SDS011;293;53.888;11.464;2023-05-07T11:20:44;2.10;;;1.90;;
611;SDS011;293;53.888;11.464;2023-05-07T11:26:44;2.83;;;1.97;;
611;SDS011;293;53.888;11.464;2023-05-07T11:29:13;3.37;;;2.30;;
611;SDS011;293;53.888;11.464;2023-05-07T11:31:43;3.93;;;2.20;;
611;SDS011;293;53.888;11.464;2023-05-07T11:34:14;2.97;;;2.07;;
611;SDS011;293;53.888;11.464;2023-05-07T11:36:46;2.77;;;2.43;;
611;SDS011;293;53.888;11.464;2023-05-07T11:39:27;4.87;;;2.27;;
611;SDS011;293;53.888;11.464;2023-05-07T11:41:56;3.40;;;2.43;;
611;SDS011;293;53.888;11.464;2023-05-07T11:44:23;2.27;;;2.07;;
611;SDS011;293;53.888;11.464;2023-05-07T11:46:51;2.50;;;2.30;;
611;SDS011;293;53.888;11.464;2023-05-07T11:49:18;3.40;;;2.03;;
611;SDS011;293;53.888;11.464;2023-05-07T11:51:45;2.53;;;1.60;;
611;SDS011;293;53.888;11.464;2023-05-07T11:54:15;2.60;;;1.60;;
611;SDS011;293;53.888;11.464;2023-05-07T11:56:42;2.20;;;1.70;;
611;SDS011;293;53.888;11.464;2023-05-07T11:59:12;2.60;;;2.40;;
611;SDS011;293;53.888;11.464;2023-05-07T12:01:45;3.00;;;2.30;;
611;SDS011;293;53.888;11.464;2023-05-07T12:04:13;2.13;;;1.97;;
611;SDS011;293;53.888;11.464;2023-05-07T12:06:45;7.33;;;4.07;;
611;SDS011;293;53.888;11.464;2023-05-07T12:09:12;3.90;;;2.20;;
611;SDS011;293;53.888;11.464;2023-05-07T12:11:39;2.70;;;2.50;;
611;SDS011;293;53.888;11.464;2023-05-07T12:14:06;2.13;;;1.93;;
611;SDS011;293;53.888;11.464;2023-05-07T12:16:34;3.23;;;1.87;;
611;SDS011;293;53.888;11.464;2023-05-07T12:19:00;2.43;;;2.23;;
611;SDS011;293;53.888;11.464;2023-05-07T12:21:29;3.77;;;1.93;;
611;SDS011;293;53.888;11.464;2023-05-07T12:23:56;2.40;;;2.20;;
611;SDS011;293;53.888;11.464;2023-05-07T12:26:23;3.37;;;2.33;;
611;SDS011;293;53.888;11.464;2023-05-07T12:28:51;2.93;;;2.73;;
611;SDS011;293;53.888;11.464;2023-05-07T12:31:18;5.83;;;2.90;;
611;SDS011;293;53.888;11.464;2023-05-07T12:33:45;2.23;;;2.03;;
611;SDS011;293;53.888;11.464;2023-05-07T12:36:12;2.03;;;1.83;;
611;SDS011;293;53.888;11.464;2023-05-07T12:38:40;2.57;;;2.37;;
611;SDS011;293;53.888;11.464;2023-05-07T12:41:08;2.27;;;2.13;;
611;SDS011;293;53.888;11.464;2023-05-07T12:43:37;2.50;;;2.30;;
611;SDS011;293;53.888;11.464;2023-05-07T12:46:05;3.70;;;2.27;;
611;SDS011;293;53.888;11.464;2023-05-07T12:48:33;2.30;;;2.10;;
611;SDS011;293;53.888;11.464;2023-05-07T12:51:02;2.70;;;2.50;;
611;SDS011;293;53.888;11.464;2023-05-07T12:53:29;4.50;;;2.93;;
611;SDS011;293;53.888;11.464;2023-05-07T12:55:58;2.80;;;1.90;;
611;SDS011;293;53.888;11.464;2023-05-07T12:58:26;3.13;;;2.83;;
611;SDS011;293;53.888;11.464;2023-05-07T13:00:54;5.10;;;2.37;;
611;SDS011;293;53.888;11.464;2023-05-07T13:03:24;1.93;;;1.83;;
611;SDS011;293;53.888;11.464;2023-05-07T13:05:52;2.80;;;2.27;;
611;SDS011;293;53.888;11.464;2023-05-07T13:08:28;2.20;;;2.00;;
611;SDS011;293;53.888;11.464;2023-05-07T13:10:58;3.00;;;2.70;;
611;SDS011;293;53.888;11.464;2023-05-07T13:13:28;3.17;;;2.90;;
611;SDS011;293;53.888;11.464;2023-05-07T13:15:55;3.20;;;2.67;;
611;SDS011;293;53.888;11.464;2023-05-07T13:18:21;5.27;;;3.63;;
611;SDS011;293;53.888;11.464;2023-05-07T13:20:50;5.57;;;2.50;;
611;SDS011;293;53.888;11.464;2023-05-07T13:23:17;2.73;;;2.10;;
611;SDS011;293;53.888;11.464;2023-05-07T13:25:44;3.70;;;2.57;;
611;SDS011;293;53.888;11.464;2023-05-07T13:28:12;2.90;;;2.37;;
611;SDS011;293;53.888;11.464;2023-05-07T13:30:39;9.37;;;8.40;;
611;SDS011;293;53.888;11.464;2023-05-07T13:33:07;3.83;;;3.30;;
611;SDS011;293;53.888;11.464;2023-05-07T13:35:33;3.77;;;3.23;;
611;SDS011;293;53.888;11.464;2023-05-07T13:38:01;2.37;;;2.10;;
611;SDS011;293;53.888;11.464;2023-05-07T13:40:27;3.07;;;2.50;;
611;SDS011;293;53.888;11.464;2023-05-07T13:42:56;2.73;;;2.53;;
611;SDS011;293;53.888;11.464;2023-05-07T13:45:27;6.53;;;2.53;;
611;SDS011;293;53.888;11.464;2023-05-07T13:47:54;2.93;;;2.67;;
611;SDS011;293;53.888;11.464;2023-05-07T13:50:22;3.13;;;2.23;;
611;SDS011;293;53.888;11.464;2023-05-07T13:52:49;2.80;;;2.50;;
611;SDS011;293;53.888;11.464;2023-05-07T13:55:16;3.03;;;2.83;;
611;SDS011;293;53.888;11.464;2023-05-07T13:57:43;2.50;;;2.30;;
611;SDS011;293;53.888;11.464;2023-05-07T14:00:11;3.80;;;2.20;;
611;SDS011;293;53.888;11.464;2023-05-07T14:02:40;4.27;;;2.77;;
611;SDS011;293;53.888;11.464;2023-05-07T14:05:07;4.77;;;2.70;;
611;SDS011;293;53.888;11.464;2023-05-07T14:07:35;2.70;;;2.50;;
611;SDS011;293;53.888;11.464;2023-05-07T14:10:02;2.87;;;2.67;;
611;SDS011;293;53.888;11.464;2023-05-07T14:12:29;6.10;;;3.33;;
611;SDS011;293;53.888;11.464;2023-05-07T14:14:56;2.27;;;2.13;;
611;SDS011;293;53.888;11.464;2023-05-07T14:17:23;4.57;;;2.73;;
611;SDS011;293;53.888;11.464;2023-05-07T14:19:53;4.90;;;2.23;;
611;SDS011;293;53.888;11.464;2023-05-07T14:22:20;2.23;;;1.90;;
611;SDS011;293;53.888;11.464;2023-05-07T14:24:47;2.90;;;2.40;;
611;SDS011;293;53.888;11.464;2023-05-07T14:27:14;2.97;;;2.50;;
611;SDS011;293;53.888;11.464;2023-05-07T14:29:41;3.80;;;2.80;;
611;SDS011;293;53.888;11.464;2023-05-07T14:32:10;2.13;;;1.93;;
611;SDS011;293;53.888;11.464;2023-05-07T14:34:37;3.70;;;2.47;;
611;SDS011;293;53.888;11.464;2023-05-07T14:37:05;2.50;;;2.23;;
611;SDS011;293;53.888;11.464;2023-05-07T14:39:32;3.07;;;2.50;;
611;SDS011;293;53.888;11.464;2023-05-07T14:41:59;2.90;;;2.30;;
611;SDS011;293;53.888;11.464;2023-05-07T14:44:26;2.47;;;2.27;;
611;SDS011;293;53.888;11.464;2023-05-07T14:46:52;3.07;;;2.30;;
611;SDS011;293;53.888;11.464;2023-05-07T14:49:19;2.43;;;2.23;;
611;SDS011;293;53.888;11.464;2023-05-07T14:51:46;3.50;;;3.30;;
611;SDS011;293;53.888;11.464;2023-05-07T14:54:15;3.03;;;2.10;;
611;SDS011;293;53.888;11.464;2023-05-07T14:56:42;3.60;;;2.60;;
611;SDS011;293;53.888;11.464;2023-05-07T14:59:09;3.07;;;2.60;;
611;SDS011;293;53.888;11.464;2023-05-07T15:01:36;3.00;;;2.70;;
611;SDS011;293;53.888;11.464;2023-05-07T15:04:05;7.63;;;2.97;;
611;SDS011;293;53.888;11.464;2023-05-07T15:06:32;2.90;;;2.10;;
611;SDS011;293;53.888;11.464;2023-05-07T15:08:59;2.10;;;2.00;;
611;SDS011;293;53.888;11.464;2023-05-07T15:11:27;4.50;;;2.70;;
611;SDS011;293;53.888;11.464;2023-05-07T15:13:55;3.00;;;2.60;;
611;SDS011;293;53.888;11.464;2023-05-07T15:16:22;3.47;;;2.90;;
611;SDS011;293;53.888;11.464;2023-05-07T15:18:49;3.43;;;3.13;;
611;SDS011;293;53.888;11.464;2023-05-07T15:21:16;3.67;;;2.67;;
611;SDS011;293;53.888;11.464;2023-05-07T15:23:43;3.27;;;2.97;;
611;SDS011;293;53.888;11.464;2023-05-07T15:26:10;2.23;;;1.80;;
611;SDS011;293;53.888;11.464;2023-05-07T15:28:38;3.43;;;3.13;;
611;SDS011;293;53.888;11.464;2023-05-07T15:31:05;2.70;;;2.47;;
611;SDS011;293;53.888;11.464;2023-05-07T15:33:32;2.53;;;2.00;;
611;SDS011;293;53.888;11.464;2023-05-07T15:35:59;4.87;;;2.20;;
611;SDS011;293;53.888;11.464;2023-05-07T15:38:28;5.20;;;3.00;;
611;SDS011;293;53.888;11.464;2023-05-07T15:40:55;4.17;;;2.97;;